sensor_id;sensor_type;location;lat;lon;timestamp;P1;durP1;ratioP1;P2;durP2;ratioP2
69280;SDS011;56392;51.082;17.080;2023-04-24T00:04:05;17.47;;;9.20;;
69280;SDS011;56392;51.082;17.080;2023-04-24T00:09:33;18.13;;;9.67;;
69280;SDS011;56392;51.082;17.080;2023-04-24T00:14:56;17.02;;;10.00;;
69280;SDS011;56392;51.082;17.080;2023-04-24T00:20:19;21.17;;;12.57;;
69280;SDS011;56392;51.082;17.080;2023-04-24T00:25:45;22.53;;;11.87;;
69280;SDS011;56392;51.082;17.080;2023-04-24T00:31:08;20.27;;;12.00;;
69280;SDS011;56392;51.082;17.080;2023-04-24T00:36:31;21.92;;;12.30;;
69280;SDS011;56392;51.082;17.080;2023-04-24T00:41:56;22.60;;;12.77;;
69280;SDS011;56392;51.082;17.080;2023-04-24T00:47:20;25.65;;;12.68;;
69280;SDS011;56392;51.082;17.080;2023-04-24T00:52:44;20.95;;;12.32;;
69280;SDS011;56392;51.082;17.080;2023-04-24T00:58:08;21.33;;;12.27;;
69280;SDS011;56392;51.082;17.080;2023-04-24T01:03:32;23.20;;;13.50;;
69280;SDS011;56392;51.082;17.080;2023-04-24T01:08:58;21.38;;;12.27;;
69280;SDS011;56392;51.082;17.080;2023-04-24T01:14:23;21.15;;;12.00;;
69280;SDS011;56392;51.082;17.080;2023-04-24T01:19:47;21.27;;;12.70;;
69280;SDS011;56392;51.082;17.080;2023-04-24T01:25:11;22.58;;;11.88;;
69280;SDS011;56392;51.082;17.080;2023-04-24T01:30:35;21.65;;;12.43;;
69280;SDS011;56392;51.082;17.080;2023-04-24T01:35:58;20.87;;;12.20;;
69280;SDS011;56392;51.082;17.080;2023-04-24T01:41:22;21.70;;;11.95;;
69280;SDS011;56392;51.082;17.080;2023-04-24T01:46:46;18.00;;;10.75;;
69280;SDS011;56392;51.082;17.080;2023-04-24T01:52:09;22.53;;;11.93;;
69280;SDS011;56392;51.082;17.080;2023-04-24T01:57:34;21.00;;;11.43;;
69280;SDS011;56392;51.082;17.080;2023-04-24T02:02:58;18.88;;;10.73;;
69280;SDS011;56392;51.082;17.080;2023-04-24T02:08:23;19.58;;;11.43;;
69280;SDS011;56392;51.082;17.080;2023-04-24T02:13:47;18.87;;;11.13;;
69280;SDS011;56392;51.082;17.080;2023-04-24T02:19:11;18.15;;;11.23;;
69280;SDS011;56392;51.082;17.080;2023-04-24T02:24:34;18.77;;;10.57;;
69280;SDS011;56392;51.082;17.080;2023-04-24T02:30:00;18.40;;;11.10;;
69280;SDS011;56392;51.082;17.080;2023-04-24T02:35:24;21.45;;;11.00;;
69280;SDS011;56392;51.082;17.080;2023-04-24T02:40:47;19.00;;;10.98;;
69280;SDS011;56392;51.082;17.080;2023-04-24T02:46:12;20.97;;;10.53;;
69280;SDS011;56392;51.082;17.080;2023-04-24T02:51:35;16.60;;;10.13;;
69280;SDS011;56392;51.082;17.080;2023-04-24T02:57:02;18.42;;;10.63;;
69280;SDS011;56392;51.082;17.080;2023-04-24T03:02:26;18.50;;;10.25;;
69280;SDS011;56392;51.082;17.080;2023-04-24T03:07:50;16.73;;;10.43;;
69280;SDS011;56392;51.082;17.080;2023-04-24T03:13:14;21.52;;;11.38;;
69280;SDS011;56392;51.082;17.080;2023-04-24T03:18:39;17.38;;;10.80;;
69280;SDS011;56392;51.082;17.080;2023-04-24T03:24:02;17.80;;;10.87;;
69280;SDS011;56392;51.082;17.080;2023-04-24T03:29:25;18.70;;;10.68;;
69280;SDS011;56392;51.082;17.080;2023-04-24T03:34:50;18.60;;;10.73;;
69280;SDS011;56392;51.082;17.080;2023-04-24T03:40:13;17.17;;;10.90;;
69280;SDS011;56392;51.082;17.080;2023-04-24T03:45:36;20.90;;;10.70;;
69280;SDS011;56392;51.082;17.080;2023-04-24T03:51:01;18.25;;;10.32;;
69280;SDS011;56392;51.082;17.080;2023-04-24T03:56:24;19.73;;;10.77;;
69280;SDS011;56392;51.082;17.080;2023-04-24T04:01:47;22.97;;;10.67;;
69280;SDS011;56392;51.082;17.080;2023-04-24T04:07:14;19.73;;;10.98;;
69280;SDS011;56392;51.082;17.080;2023-04-24T04:12:37;18.67;;;10.65;;
69280;SDS011;56392;51.082;17.080;2023-04-24T04:18:00;19.87;;;11.30;;
69280;SDS011;56392;51.082;17.080;2023-04-24T04:23:24;17.45;;;10.55;;
69280;SDS011;56392;51.082;17.080;2023-04-24T04:28:49;17.83;;;11.10;;
69280;SDS011;56392;51.082;17.080;2023-04-24T04:34:12;16.97;;;10.50;;
69280;SDS011;56392;51.082;17.080;2023-04-24T04:39:37;19.87;;;11.07;;
69280;SDS011;56392;51.082;17.080;2023-04-24T04:45:00;19.42;;;11.48;;
69280;SDS011;56392;51.082;17.080;2023-04-24T04:50:23;20.25;;;11.35;;
69280;SDS011;56392;51.082;17.080;2023-04-24T04:55:48;21.40;;;11.90;;
69280;SDS011;56392;51.082;17.080;2023-04-24T05:01:11;19.90;;;11.75;;
69280;SDS011;56392;51.082;17.080;2023-04-24T05:06:35;17.27;;;10.75;;
69280;SDS011;56392;51.082;17.080;2023-04-24T05:11:59;20.57;;;9.73;;
69280;SDS011;56392;51.082;17.080;2023-04-24T05:17:23;16.13;;;9.63;;
69280;SDS011;56392;51.082;17.080;2023-04-24T05:22:47;15.60;;;9.15;;
69280;SDS011;56392;51.082;17.080;2023-04-24T05:28:11;18.03;;;8.67;;
69280;SDS011;56392;51.082;17.080;2023-04-24T05:33:34;15.20;;;7.30;;
69280;SDS011;56392;51.082;17.080;2023-04-24T05:38:57;14.30;;;7.32;;
69280;SDS011;56392;51.082;17.080;2023-04-24T05:44:22;14.48;;;7.43;;
69280;SDS011;56392;51.082;17.080;2023-04-24T05:49:46;16.03;;;7.73;;
69280;SDS011;56392;51.082;17.080;2023-04-24T05:55:08;15.02;;;7.30;;
69280;SDS011;56392;51.082;17.080;2023-04-24T06:00:34;16.02;;;7.28;;
69280;SDS011;56392;51.082;17.080;2023-04-24T06:05:57;13.37;;;7.03;;
69280;SDS011;56392;51.082;17.080;2023-04-24T06:11:21;18.02;;;7.78;;
69280;SDS011;56392;51.082;17.080;2023-04-24T06:16:45;14.68;;;7.30;;
69280;SDS011;56392;51.082;17.080;2023-04-24T06:22:08;12.77;;;6.70;;
69280;SDS011;56392;51.082;17.080;2023-04-24T06:27:32;12.33;;;6.30;;
69280;SDS011;56392;51.082;17.080;2023-04-24T06:32:56;12.65;;;6.00;;
69280;SDS011;56392;51.082;17.080;2023-04-24T06:38:19;14.25;;;6.15;;
69280;SDS011;56392;51.082;17.080;2023-04-24T06:43:43;16.27;;;6.70;;
69280;SDS011;56392;51.082;17.080;2023-04-24T06:49:07;13.88;;;6.40;;
69280;SDS011;56392;51.082;17.080;2023-04-24T06:54:30;14.02;;;6.22;;
69280;SDS011;56392;51.082;17.080;2023-04-24T06:59:53;12.70;;;6.60;;
69280;SDS011;56392;51.082;17.080;2023-04-24T07:05:18;13.10;;;6.10;;
69280;SDS011;56392;51.082;17.080;2023-04-24T07:10:42;13.65;;;5.90;;
69280;SDS011;56392;51.082;17.080;2023-04-24T07:16:06;13.70;;;5.80;;
69280;SDS011;56392;51.082;17.080;2023-04-24T07:21:31;12.27;;;5.37;;
69280;SDS011;56392;51.082;17.080;2023-04-24T07:26:54;13.95;;;6.15;;
69280;SDS011;56392;51.082;17.080;2023-04-24T07:32:18;10.32;;;5.38;;
69280;SDS011;56392;51.082;17.080;2023-04-24T07:37:43;10.47;;;4.83;;
69280;SDS011;56392;51.082;17.080;2023-04-24T07:43:07;10.90;;;5.30;;
69280;SDS011;56392;51.082;17.080;2023-04-24T07:48:30;11.57;;;4.90;;
69280;SDS011;56392;51.082;17.080;2023-04-24T07:53:54;8.83;;;5.00;;
69280;SDS011;56392;51.082;17.080;2023-04-24T07:59:17;10.85;;;4.60;;
69280;SDS011;56392;51.082;17.080;2023-04-24T08:04:40;10.95;;;5.10;;
69280;SDS011;56392;51.082;17.080;2023-04-24T08:10:05;10.53;;;5.50;;
69280;SDS011;56392;51.082;17.080;2023-04-24T08:15:32;12.97;;;5.60;;
69280;SDS011;56392;51.082;17.080;2023-04-24T08:20:55;9.88;;;5.20;;
69280;SDS011;56392;51.082;17.080;2023-04-24T08:26:24;10.23;;;5.13;;
69280;SDS011;56392;51.082;17.080;2023-04-24T08:31:47;11.47;;;5.60;;
69280;SDS011;56392;51.082;17.080;2023-04-24T08:37:11;17.00;;;7.43;;
69280;SDS011;56392;51.082;17.080;2023-04-24T08:42:35;17.25;;;8.20;;
69280;SDS011;56392;51.082;17.080;2023-04-24T08:48:00;15.27;;;7.90;;
69280;SDS011;56392;51.082;17.080;2023-04-24T08:53:23;12.48;;;6.50;;
69280;SDS011;56392;51.082;17.080;2023-04-24T08:58:49;12.35;;;6.15;;
69280;SDS011;56392;51.082;17.080;2023-04-24T09:04:13;15.87;;;6.50;;
69280;SDS011;56392;51.082;17.080;2023-04-24T09:09:37;16.33;;;7.50;;
69280;SDS011;56392;51.082;17.080;2023-04-24T09:15:03;11.50;;;6.75;;
69280;SDS011;56392;51.082;17.080;2023-04-24T09:20:28;13.30;;;6.90;;
69280;SDS011;56392;51.082;17.080;2023-04-24T09:25:53;13.03;;;6.60;;
69280;SDS011;56392;51.082;17.080;2023-04-24T09:31:19;10.90;;;6.82;;
69280;SDS011;56392;51.082;17.080;2023-04-24T09:36:44;12.35;;;6.97;;
69280;SDS011;56392;51.082;17.080;2023-04-24T09:42:07;11.33;;;6.83;;
69280;SDS011;56392;51.082;17.080;2023-04-24T09:47:36;13.82;;;6.47;;
69280;SDS011;56392;51.082;17.080;2023-04-24T09:53:01;13.07;;;7.32;;
69280;SDS011;56392;51.082;17.080;2023-04-24T09:58:25;11.00;;;6.77;;
69280;SDS011;56392;51.082;17.080;2023-04-24T10:03:50;11.87;;;6.10;;
69280;SDS011;56392;51.082;17.080;2023-04-24T10:09:14;11.43;;;6.50;;
69280;SDS011;56392;51.082;17.080;2023-04-24T10:14:37;12.70;;;6.95;;
69280;SDS011;56392;51.082;17.080;2023-04-24T10:20:02;11.57;;;6.80;;
69280;SDS011;56392;51.082;17.080;2023-04-24T10:25:27;13.02;;;6.25;;
69280;SDS011;56392;51.082;17.080;2023-04-24T10:30:51;12.05;;;6.25;;
69280;SDS011;56392;51.082;17.080;2023-04-24T10:36:18;10.50;;;5.97;;
69280;SDS011;56392;51.082;17.080;2023-04-24T10:41:45;12.98;;;6.28;;
69280;SDS011;56392;51.082;17.080;2023-04-24T10:47:12;11.27;;;5.93;;
69280;SDS011;56392;51.082;17.080;2023-04-24T10:52:47;10.10;;;5.60;;
69280;SDS011;56392;51.082;17.080;2023-04-24T10:58:12;10.93;;;5.93;;
69280;SDS011;56392;51.082;17.080;2023-04-24T11:03:36;10.75;;;5.53;;
69280;SDS011;56392;51.082;17.080;2023-04-24T11:09:05;13.20;;;6.07;;
69280;SDS011;56392;51.082;17.080;2023-04-24T11:14:29;10.20;;;6.00;;
69280;SDS011;56392;51.082;17.080;2023-04-24T11:19:52;12.60;;;6.43;;
69280;SDS011;56392;51.082;17.080;2023-04-24T11:25:24;12.15;;;6.40;;
69280;SDS011;56392;51.082;17.080;2023-04-24T11:30:48;12.10;;;6.07;;
69280;SDS011;56392;51.082;17.080;2023-04-24T11:36:12;13.55;;;6.30;;
69280;SDS011;56392;51.082;17.080;2023-04-24T11:41:37;16.27;;;6.55;;
69280;SDS011;56392;51.082;17.080;2023-04-24T11:47:00;12.47;;;6.47;;
69280;SDS011;56392;51.082;17.080;2023-04-24T11:52:23;9.63;;;5.70;;
69280;SDS011;56392;51.082;17.080;2023-04-24T11:57:48;12.38;;;6.10;;
69280;SDS011;56392;51.082;17.080;2023-04-24T12:03:13;12.02;;;6.03;;
69280;SDS011;56392;51.082;17.080;2023-04-24T12:08:36;11.27;;;6.07;;
69280;SDS011;56392;51.082;17.080;2023-04-24T12:14:10;11.48;;;6.47;;
69280;SDS011;56392;51.082;17.080;2023-04-24T12:19:33;12.55;;;6.00;;
69280;SDS011;56392;51.082;17.080;2023-04-24T12:24:57;10.50;;;6.20;;
69280;SDS011;56392;51.082;17.080;2023-04-24T12:30:26;12.77;;;6.63;;
69280;SDS011;56392;51.082;17.080;2023-04-24T12:35:52;13.55;;;6.60;;
69280;SDS011;56392;51.082;17.080;2023-04-24T12:41:15;13.13;;;6.10;;
69280;SDS011;56392;51.082;17.080;2023-04-24T12:46:43;9.83;;;5.17;;
69280;SDS011;56392;51.082;17.080;2023-04-24T12:52:06;9.25;;;5.13;;
69280;SDS011;56392;51.082;17.080;2023-04-24T12:57:29;10.25;;;5.35;;
69280;SDS011;56392;51.082;17.080;2023-04-24T13:02:54;11.13;;;5.50;;
69280;SDS011;56392;51.082;17.080;2023-04-24T13:08:17;11.23;;;6.05;;
69280;SDS011;56392;51.082;17.080;2023-04-24T13:13:41;10.80;;;5.72;;
69280;SDS011;56392;51.082;17.080;2023-04-24T13:19:06;10.37;;;4.90;;
69280;SDS011;56392;51.082;17.080;2023-04-24T13:24:30;11.23;;;4.40;;
69280;SDS011;56392;51.082;17.080;2023-04-24T13:29:53;7.68;;;2.88;;
69280;SDS011;56392;51.082;17.080;2023-04-24T13:35:18;7.53;;;2.20;;
69280;SDS011;56392;51.082;17.080;2023-04-24T13:40:41;6.07;;;1.90;;
69280;SDS011;56392;51.082;17.080;2023-04-24T13:46:04;8.43;;;2.20;;
69280;SDS011;56392;51.082;17.080;2023-04-24T13:51:28;7.93;;;1.90;;
69280;SDS011;56392;51.082;17.080;2023-04-24T13:56:53;5.90;;;1.40;;
69280;SDS011;56392;51.082;17.080;2023-04-24T14:02:17;7.43;;;1.50;;
69280;SDS011;56392;51.082;17.080;2023-04-24T14:07:41;5.30;;;1.10;;
69280;SDS011;56392;51.082;17.080;2023-04-24T14:13:04;6.37;;;1.23;;
69280;SDS011;56392;51.082;17.080;2023-04-24T14:18:28;5.20;;;1.30;;
69280;SDS011;56392;51.082;17.080;2023-04-24T14:23:52;10.82;;;1.77;;
69280;SDS011;56392;51.082;17.080;2023-04-24T14:29:15;8.90;;;1.93;;
69280;SDS011;56392;51.082;17.080;2023-04-24T14:34:38;7.43;;;1.97;;
69280;SDS011;56392;51.082;17.080;2023-04-24T14:40:03;6.30;;;1.77;;
69280;SDS011;56392;51.082;17.080;2023-04-24T14:45:27;6.53;;;1.83;;
69280;SDS011;56392;51.082;17.080;2023-04-24T14:50:51;6.10;;;1.77;;
69280;SDS011;56392;51.082;17.080;2023-04-24T14:56:16;11.43;;;2.20;;
69280;SDS011;56392;51.082;17.080;2023-04-24T15:01:39;7.07;;;2.17;;
69280;SDS011;56392;51.082;17.080;2023-04-24T15:07:02;8.30;;;2.40;;
69280;SDS011;56392;51.082;17.080;2023-04-24T15:12:27;6.70;;;2.00;;
69280;SDS011;56392;51.082;17.080;2023-04-24T15:17:51;5.97;;;1.95;;
69280;SDS011;56392;51.082;17.080;2023-04-24T15:23:14;5.93;;;1.63;;
69280;SDS011;56392;51.082;17.080;2023-04-24T15:28:39;5.00;;;1.30;;
69280;SDS011;56392;51.082;17.080;2023-04-24T15:34:02;6.22;;;1.60;;
69280;SDS011;56392;51.082;17.080;2023-04-24T15:39:25;6.68;;;1.50;;
69280;SDS011;56392;51.082;17.080;2023-04-24T15:44:51;6.43;;;1.90;;
69280;SDS011;56392;51.082;17.080;2023-04-24T15:50:14;7.57;;;1.95;;
69280;SDS011;56392;51.082;17.080;2023-04-24T15:55:38;5.68;;;1.52;;
69280;SDS011;56392;51.082;17.080;2023-04-24T16:01:02;7.03;;;1.37;;
69280;SDS011;56392;51.082;17.080;2023-04-24T16:06:26;4.80;;;1.30;;
69280;SDS011;56392;51.082;17.080;2023-04-24T16:11:49;4.55;;;1.23;;
69280;SDS011;56392;51.082;17.080;2023-04-24T16:17:15;5.47;;;1.10;;
69280;SDS011;56392;51.082;17.080;2023-04-24T16:22:43;5.17;;;1.23;;
69280;SDS011;56392;51.082;17.080;2023-04-24T16:28:06;5.40;;;1.17;;
69280;SDS011;56392;51.082;17.080;2023-04-24T16:33:31;5.82;;;1.27;;
69280;SDS011;56392;51.082;17.080;2023-04-24T16:38:54;5.43;;;1.50;;
69280;SDS011;56392;51.082;17.080;2023-04-24T16:44:17;6.57;;;1.70;;
69280;SDS011;56392;51.082;17.080;2023-04-24T16:49:42;5.85;;;1.83;;
69280;SDS011;56392;51.082;17.080;2023-04-24T16:55:06;5.77;;;1.73;;
69280;SDS011;56392;51.082;17.080;2023-04-24T17:00:30;6.78;;;2.15;;
69280;SDS011;56392;51.082;17.080;2023-04-24T17:05:55;8.13;;;2.40;;
69280;SDS011;56392;51.082;17.080;2023-04-24T17:11:18;8.90;;;2.60;;
69280;SDS011;56392;51.082;17.080;2023-04-24T17:16:41;7.23;;;2.80;;
69280;SDS011;56392;51.082;17.080;2023-04-24T17:22:07;7.75;;;3.08;;
69280;SDS011;56392;51.082;17.080;2023-04-24T17:27:30;8.57;;;3.25;;
69280;SDS011;56392;51.082;17.080;2023-04-24T17:32:54;7.63;;;2.90;;
69280;SDS011;56392;51.082;17.080;2023-04-24T17:38:18;9.23;;;3.13;;
69280;SDS011;56392;51.082;17.080;2023-04-24T17:43:41;11.18;;;4.40;;
69280;SDS011;56392;51.082;17.080;2023-04-24T17:49:06;9.03;;;3.73;;
69280;SDS011;56392;51.082;17.080;2023-04-24T17:54:30;10.35;;;3.67;;
69280;SDS011;56392;51.082;17.080;2023-04-24T17:59:53;8.73;;;3.50;;
69280;SDS011;56392;51.082;17.080;2023-04-24T18:05:17;7.93;;;3.30;;
69280;SDS011;56392;51.082;17.080;2023-04-24T18:10:42;7.00;;;3.03;;
69280;SDS011;56392;51.082;17.080;2023-04-24T18:16:06;9.93;;;4.18;;
69280;SDS011;56392;51.082;17.080;2023-04-24T18:21:30;10.13;;;4.57;;
69280;SDS011;56392;51.082;17.080;2023-04-24T18:26:54;12.27;;;4.70;;
69280;SDS011;56392;51.082;17.080;2023-04-24T18:32:17;10.80;;;4.80;;
69280;SDS011;56392;51.082;17.080;2023-04-24T18:37:41;10.00;;;4.60;;
69280;SDS011;56392;51.082;17.080;2023-04-24T18:43:07;9.87;;;4.70;;
69280;SDS011;56392;51.082;17.080;2023-04-24T18:48:30;11.93;;;5.03;;
69280;SDS011;56392;51.082;17.080;2023-04-24T18:53:53;13.30;;;5.10;;
69280;SDS011;56392;51.082;17.080;2023-04-24T18:59:18;11.13;;;4.67;;
69280;SDS011;56392;51.082;17.080;2023-04-24T19:04:41;10.40;;;4.97;;
69280;SDS011;56392;51.082;17.080;2023-04-24T19:10:06;10.80;;;5.25;;
69280;SDS011;56392;51.082;17.080;2023-04-24T19:15:31;13.15;;;5.28;;
69280;SDS011;56392;51.082;17.080;2023-04-24T19:20:55;13.40;;;5.80;;
69280;SDS011;56392;51.082;17.080;2023-04-24T19:26:19;12.23;;;5.40;;
69280;SDS011;56392;51.082;17.080;2023-04-24T19:31:45;13.75;;;6.43;;
69280;SDS011;56392;51.082;17.080;2023-04-24T19:37:08;13.70;;;7.17;;
69280;SDS011;56392;51.082;17.080;2023-04-24T19:42:32;15.77;;;7.32;;
69280;SDS011;56392;51.082;17.080;2023-04-24T19:47:56;13.27;;;6.95;;
69280;SDS011;56392;51.082;17.080;2023-04-24T19:53:20;13.93;;;7.10;;
69280;SDS011;56392;51.082;17.080;2023-04-24T19:58:43;14.30;;;7.60;;
69280;SDS011;56392;51.082;17.080;2023-04-24T20:04:10;18.65;;;8.45;;
69280;SDS011;56392;51.082;17.080;2023-04-24T20:09:33;17.55;;;9.07;;
69280;SDS011;56392;51.082;17.080;2023-04-24T20:14:56;15.30;;;7.80;;
69280;SDS011;56392;51.082;17.080;2023-04-24T20:20:21;14.32;;;6.25;;
69280;SDS011;56392;51.082;17.080;2023-04-24T20:25:46;12.73;;;5.45;;
69280;SDS011;56392;51.082;17.080;2023-04-24T20:31:09;11.33;;;5.73;;
69280;SDS011;56392;51.082;17.080;2023-04-24T20:36:33;14.27;;;6.43;;
69280;SDS011;56392;51.082;17.080;2023-04-24T20:41:57;11.75;;;5.20;;
69280;SDS011;56392;51.082;17.080;2023-04-24T20:47:20;13.67;;;6.70;;
69280;SDS011;56392;51.082;17.080;2023-04-24T20:52:45;11.10;;;6.00;;
69280;SDS011;56392;51.082;17.080;2023-04-24T20:58:08;12.38;;;5.97;;
69280;SDS011;56392;51.082;17.080;2023-04-24T21:03:32;11.00;;;5.35;;
69280;SDS011;56392;51.082;17.080;2023-04-24T21:08:57;12.93;;;5.30;;
69280;SDS011;56392;51.082;17.080;2023-04-24T21:14:20;10.07;;;4.80;;
69280;SDS011;56392;51.082;17.080;2023-04-24T21:19:43;8.48;;;4.10;;
69280;SDS011;56392;51.082;17.080;2023-04-24T21:25:08;9.03;;;3.97;;
69280;SDS011;56392;51.082;17.080;2023-04-24T21:30:31;8.77;;;4.03;;
69280;SDS011;56392;51.082;17.080;2023-04-24T21:35:55;9.48;;;3.58;;
69280;SDS011;56392;51.082;17.080;2023-04-24T21:41:19;8.80;;;3.90;;
69280;SDS011;56392;51.082;17.080;2023-04-24T21:46:43;9.93;;;3.70;;
69280;SDS011;56392;51.082;17.080;2023-04-24T21:52:06;9.98;;;3.40;;
69280;SDS011;56392;51.082;17.080;2023-04-24T21:57:31;8.43;;;3.35;;
69280;SDS011;56392;51.082;17.080;2023-04-24T22:02:54;10.23;;;3.13;;
69280;SDS011;56392;51.082;17.080;2023-04-24T22:08:17;7.38;;;2.50;;
69280;SDS011;56392;51.082;17.080;2023-04-24T22:13:42;9.13;;;2.75;;
69280;SDS011;56392;51.082;17.080;2023-04-24T22:19:05;10.30;;;2.67;;
69280;SDS011;56392;51.082;17.080;2023-04-24T22:24:28;8.40;;;2.30;;
69280;SDS011;56392;51.082;17.080;2023-04-24T22:29:53;6.57;;;2.10;;
69280;SDS011;56392;51.082;17.080;2023-04-24T22:35:16;6.90;;;2.37;;
69280;SDS011;56392;51.082;17.080;2023-04-24T22:40:40;7.20;;;2.20;;
69280;SDS011;56392;51.082;17.080;2023-04-24T22:46:05;7.93;;;2.50;;
69280;SDS011;56392;51.082;17.080;2023-04-24T22:51:28;7.53;;;2.42;;
69280;SDS011;56392;51.082;17.080;2023-04-24T22:56:53;7.93;;;2.20;;
69280;SDS011;56392;51.082;17.080;2023-04-24T23:02:18;7.32;;;2.60;;
69280;SDS011;56392;51.082;17.080;2023-04-24T23:07:41;7.80;;;2.22;;
69280;SDS011;56392;51.082;17.080;2023-04-24T23:13:04;7.97;;;2.07;;
69280;SDS011;56392;51.082;17.080;2023-04-24T23:18:29;5.38;;;1.67;;
69280;SDS011;56392;51.082;17.080;2023-04-24T23:23:52;5.63;;;1.60;;
69280;SDS011;56392;51.082;17.080;2023-04-24T23:29:15;6.50;;;1.70;;
69280;SDS011;56392;51.082;17.080;2023-04-24T23:34:39;6.60;;;1.40;;
69280;SDS011;56392;51.082;17.080;2023-04-24T23:40:03;5.25;;;1.40;;
69280;SDS011;56392;51.082;17.080;2023-04-24T23:45:27;5.63;;;1.27;;
69280;SDS011;56392;51.082;17.080;2023-04-24T23:50:52;5.20;;;1.10;;
69280;SDS011;56392;51.082;17.080;2023-04-24T23:56:15;4.95;;;1.40;;
